Time;durP1;ratioP1;P1;durP2;ratioP2;P2;SDS_P1;SDS_P2;PMS_P1;PMS_P2;Temp;Humidity;BMP_temperature;BMP_pressure;BME280_temperature;BME280_humidity;BME280_pressure;Samples;Min_cycle;Max_cycle;Signal;HPM_P1;HPM_P2
2021/03/31 00:01:39;;;;;;;7.32;3.38;;;13.70;62.40;;;;;;5011859;28;20032;-75
2021/03/31 00:04:05;;;;;;;9.70;3.72;;;13.70;62.50;;;;;;4994857;28;20427;-75
2021/03/31 00:06:31;;;;;;;8.65;3.58;;;13.70;62.60;;;;;;4994377;28;20061;-75
2021/03/31 00:08:56;;;;;;;11.20;4.50;;;13.70;62.70;;;;;;5012708;28;20038;-74
2021/03/31 00:11:22;;;;;;;11.38;4.15;;;13.70;62.70;;;;;;5012331;28;20044;-75
2021/03/31 00:13:48;;;;;;;11.77;3.85;;;13.70;62.80;;;;;;5011778;28;20125;-74
2021/03/31 00:16:14;;;;;;;10.55;3.08;;;13.60;62.80;;;;;;4994665;28;20026;-75
2021/03/31 00:18:40;;;;;;;10.43;3.80;;;13.60;62.80;;;;;;5011088;28;20078;-75
2021/03/31 00:21:06;;;;;;;11.38;3.72;;;13.60;62.80;;;;;;5012133;28;20411;-74
2021/03/31 00:23:32;;;;;;;8.40;3.67;;;13.60;62.80;;;;;;5011391;28;20029;-75
2021/03/31 00:25:57;;;;;;;6.80;2.92;;;13.60;62.90;;;;;;5012265;28;20032;-75
2021/03/31 00:28:24;;;;;;;9.13;3.83;;;13.60;62.90;;;;;;5012517;28;20028;-74
2021/03/31 00:30:50;;;;;;;12.52;3.78;;;13.60;63.00;;;;;;5011983;28;20462;-75
2021/03/31 00:33:17;;;;;;;9.75;3.55;;;13.50;63.10;;;;;;5012134;28;20104;-73
2021/03/31 00:35:43;;;;;;;12.30;3.78;;;13.50;63.10;;;;;;5011499;28;20036;-74
2021/03/31 00:38:10;;;;;;;8.68;3.42;;;13.50;63.10;;;;;;5012027;28;20389;-74
2021/03/31 00:40:39;;;;;;;11.77;4.22;;;13.50;63.20;;;;;;4993498;28;20390;-73
2021/03/31 00:43:05;;;;;;;11.52;3.40;;;13.50;63.30;;;;;;5011632;28;20022;-75
2021/03/31 00:45:32;;;;;;;15.07;3.88;;;13.40;63.30;;;;;;4993559;28;20108;-75
2021/03/31 00:47:57;;;;;;;11.77;4.43;;;13.40;63.20;;;;;;4994264;28;20152;-74
2021/03/31 00:50:23;;;;;;;9.98;3.38;;;13.40;63.30;;;;;;5012035;28;20034;-75
2021/03/31 00:52:51;;;;;;;11.80;4.90;;;13.40;63.30;;;;;;4993639;28;20512;-75
2021/03/31 00:55:21;;;;;;;8.50;3.25;;;13.40;63.40;;;;;;5012391;28;20084;-75
2021/03/31 00:57:47;;;;;;;8.88;3.00;;;13.40;63.50;;;;;;4994165;28;20026;-74
2021/03/31 01:00:13;;;;;;;11.73;3.75;;;13.40;63.50;;;;;;5014055;28;20026;-74
2021/03/31 01:02:40;;;;;;;12.18;3.90;;;13.30;63.50;;;;;;5017706;28;20080;-75
2021/03/31 01:05:12;;;;;;;12.75;4.28;;;13.30;63.60;;;;;;5017325;28;20054;-75
2021/03/31 01:07:38;;;;;;;11.60;3.92;;;13.30;63.70;;;;;;4994625;28;20053;-75
2021/03/31 01:10:06;;;;;;;9.30;3.58;;;13.30;63.70;;;;;;5013307;28;20410;-75
2021/03/31 01:12:50;;;;;;;15.38;3.35;;;13.30;63.90;;;;;;5016609;28;20030;-74
2021/03/31 01:15:27;;;;;;;12.15;3.95;;;13.20;63.90;;;;;;5014204;28;20033;-74
2021/03/31 01:18:05;;;;;;;8.88;3.25;;;13.20;63.90;;;;;;4992718;28;20061;-74
2021/03/31 01:20:40;;;;;;;11.35;4.03;;;13.20;64.60;;;;;;5010567;28;20374;-75
2021/03/31 01:23:39;;;;;;;8.18;3.70;;;13.20;64.10;;;;;;4993888;28;20078;-75
2021/03/31 01:26:19;;;;;;;7.13;3.00;;;13.20;64.00;;;;;;5011474;28;20061;-74
2021/03/31 01:29:09;;;;;;;12.52;4.18;;;13.10;64.10;;;;;;5010734;28;20022;-75
2021/03/31 01:31:44;;;;;;;12.43;4.18;;;13.10;64.10;;;;;;5010506;28;20466;-75
2021/03/31 01:34:36;;;;;;;9.32;3.92;;;13.10;64.20;;;;;;5011282;28;20037;-75
2021/03/31 01:37:07;;;;;;;9.95;3.80;;;13.10;64.30;;;;;;5011479;28;20036;-74
2021/03/31 01:39:36;;;;;;;10.10;3.95;;;13.00;64.30;;;;;;5010350;28;20494;-74
2021/03/31 01:42:02;;;;;;;9.35;3.08;;;13.00;64.40;;;;;;5010848;28;20030;-75
2021/03/31 01:44:28;;;;;;;10.93;3.33;;;13.00;64.50;;;;;;4993169;28;20030;-74
2021/03/31 01:46:56;;;;;;;12.32;3.78;;;13.00;64.50;;;;;;5010601;28;20025;-74
2021/03/31 01:49:24;;;;;;;9.40;3.90;;;12.90;64.50;;;;;;5010835;28;20030;-75
2021/03/31 01:52:00;;;;;;;11.45;3.88;;;12.90;64.50;;;;;;4992535;28;20053;-75
2021/03/31 01:54:27;;;;;;;10.52;4.22;;;12.90;64.50;;;;;;5013257;28;20026;-74
2021/03/31 01:56:53;;;;;;;12.32;3.90;;;12.90;64.60;;;;;;5013925;28;20080;-74
2021/03/31 01:59:20;;;;;;;13.70;4.70;;;12.90;64.60;;;;;;5014523;28;20028;-74
2021/03/31 02:01:49;;;;;;;11.75;4.22;;;12.80;64.60;;;;;;4996448;28;20113;-75
2021/03/31 02:04:16;;;;;;;13.18;4.32;;;12.80;64.60;;;;;;5014933;28;20072;-74
2021/03/31 02:06:42;;;;;;;14.05;4.20;;;12.80;64.80;;;;;;5014115;28;20052;-75
2021/03/31 02:09:10;;;;;;;10.18;3.95;;;12.80;64.90;;;;;;5014531;28;20449;-74
2021/03/31 02:11:37;;;;;;;11.23;4.25;;;12.80;64.90;;;;;;5013937;28;20032;-74
2021/03/31 02:14:03;;;;;;;10.10;4.13;;;12.70;64.90;;;;;;5014433;28;20120;-75
2021/03/31 02:16:32;;;;;;;13.57;3.65;;;12.70;64.90;;;;;;5013991;28;20026;-75
2021/03/31 02:18:59;;;;;;;7.78;3.05;;;12.70;64.90;;;;;;4995841;28;20054;-74
2021/03/31 02:21:25;;;;;;;9.65;3.70;;;12.70;64.90;;;;;;5014078;28;20018;-74
2021/03/31 02:23:52;;;;;;;9.93;4.25;;;12.60;64.90;;;;;;5013613;28;20033;-74
2021/03/31 02:26:18;;;;;;;12.57;4.30;;;12.70;64.90;;;;;;5014261;28;20045;-75
2021/03/31 02:28:45;;;;;;;8.48;3.70;;;12.60;64.90;;;;;;5013647;28;20053;-75
2021/03/31 02:31:15;;;;;;;10.43;4.00;;;12.60;64.90;;;;;;5014430;28;20075;-74
2021/03/31 02:33:43;;;;;;;9.60;3.88;;;12.60;65.10;;;;;;5013596;28;20116;-75
2021/03/31 02:36:14;;;;;;;10.77;3.97;;;12.60;65.10;;;;;;5013743;28;20029;-74
2021/03/31 02:38:41;;;;;;;11.18;3.63;;;12.60;65.10;;;;;;5013680;28;20044;-75
2021/03/31 02:41:09;;;;;;;15.07;4.25;;;12.50;65.10;;;;;;5013778;28;20021;-75
2021/03/31 02:43:41;;;;;;;10.77;3.55;;;12.50;65.20;;;;;;5013501;28;20026;-75
2021/03/31 02:46:09;;;;;;;10.20;3.95;;;12.50;65.40;;;;;;4996529;28;20355;-74
2021/03/31 02:48:37;;;;;;;10.68;3.92;;;12.50;65.50;;;;;;5013468;28;20036;-74
2021/03/31 02:51:06;;;;;;;8.27;3.75;;;12.40;65.50;;;;;;5013422;28;20026;-74
2021/03/31 02:53:31;;;;;;;12.15;4.63;;;12.40;65.50;;;;;;5013711;28;20049;-76
2021/03/31 02:56:01;;;;;;;10.15;4.07;;;12.40;65.60;;;;;;5013020;28;20022;-74
2021/03/31 02:58:27;;;;;;;10.73;3.75;;;12.40;65.70;;;;;;4995819;28;20018;-74
2021/03/31 03:00:52;;;;;;;7.35;3.45;;;12.40;65.70;;;;;;5013208;28;20037;-75
2021/03/31 03:03:18;;;;;;;8.82;3.40;;;12.40;65.70;;;;;;5013652;28;20032;-74
2021/03/31 03:05:45;;;;;;;12.70;4.53;;;12.40;65.70;;;;;;4994905;28;20018;-75
2021/03/31 03:08:11;;;;;;;13.25;4.60;;;12.30;65.70;;;;;;4995876;28;20033;-74
2021/03/31 03:10:37;;;;;;;12.38;4.15;;;12.30;65.70;;;;;;4995389;28;20120;-75
2021/03/31 03:13:03;;;;;;;10.88;3.92;;;12.30;65.60;;;;;;5013504;28;20084;-74
2021/03/31 03:15:30;;;;;;;14.13;4.55;;;12.30;65.60;;;;;;5013332;28;20030;-74
2021/03/31 03:17:56;;;;;;;11.57;4.70;;;12.20;65.60;;;;;;4994857;28;20124;-75
2021/03/31 03:20:24;;;;;;;10.27;3.88;;;12.20;65.60;;;;;;5013476;28;20414;-75
2021/03/31 03:22:53;;;;;;;15.50;4.97;;;12.20;65.50;;;;;;5012415;28;20160;-74
2021/03/31 03:25:21;;;;;;;10.60;4.00;;;12.20;65.50;;;;;;5012936;28;20074;-75
2021/03/31 03:27:48;;;;;;;7.82;3.55;;;12.20;65.50;;;;;;5012272;28;20458;-74
2021/03/31 03:30:16;;;;;;;9.95;4.18;;;12.20;65.60;;;;;;4995458;28;20429;-74
2021/03/31 03:32:45;;;;;;;8.45;3.88;;;12.20;65.70;;;;;;4994922;28;20042;-75
2021/03/31 03:35:13;;;;;;;12.77;4.75;;;12.10;65.60;;;;;;5012875;28;20014;-74
2021/03/31 03:37:41;;;;;;;10.32;4.25;;;12.10;65.60;;;;;;5012634;28;20108;-75
2021/03/31 03:40:08;;;;;;;7.32;4.28;;;12.10;65.70;;;;;;5012929;28;20415;-75
2021/03/31 03:42:34;;;;;;;8.55;3.80;;;12.10;65.80;;;;;;4995224;28;20021;-75
2021/03/31 03:45:05;;;;;;;11.25;4.03;;;12.10;65.80;;;;;;5012367;28;21046;-74
2021/03/31 03:47:31;;;;;;;;;;;12.10;65.80;;;;;;4995651;28;20028;-75
2021/03/31 03:49:57;;;;;;;9.30;3.80;;;12.00;65.80;;;;;;5012314;28;20007;-75
2021/03/31 03:52:24;;;;;;;9.75;4.18;;;12.00;65.80;;;;;;5013033;28;20385;-75
2021/03/31 03:54:54;;;;;;;12.82;5.32;;;12.00;65.80;;;;;;5012253;28;20033;-75
2021/03/31 03:57:27;;;;;;;10.73;4.22;;;12.00;65.80;;;;;;4994803;28;20180;-75
2021/03/31 03:59:56;;;;;;;9.65;3.95;;;11.90;65.60;;;;;;5011690;28;20105;-74
2021/03/31 04:02:23;;;;;;;14.43;4.55;;;11.90;65.60;;;;;;5012416;28;20050;-72
2021/03/31 04:04:49;;;;;;;11.88;4.72;;;11.90;65.60;;;;;;5011988;28;20021;-76
2021/03/31 04:07:15;;;;;;;8.73;3.60;;;11.80;65.50;;;;;;5012617;28;20072;-75
2021/03/31 04:09:46;;;;;;;10.85;4.30;;;11.80;65.50;;;;;;5011901;28;20109;-74
2021/03/31 04:12:15;;;;;;;10.65;4.50;;;11.80;65.50;;;;;;4994668;28;20108;-74
2021/03/31 04:14:41;;;;;;;11.52;4.45;;;11.80;65.50;;;;;;5012166;28;20025;-73
2021/03/31 04:17:11;;;;;;;12.60;4.63;;;11.80;65.60;;;;;;5011459;28;20120;-73
2021/03/31 04:19:38;;;;;;;11.30;4.32;;;11.80;65.70;;;;;;4991653;28;20057;-74
2021/03/31 04:22:05;;;;;;;10.90;4.13;;;11.80;65.60;;;;;;4989411;28;20458;-74
2021/03/31 04:24:30;;;;;;;26.38;9.43;;;11.70;65.60;;;;;;4975149;28;20061;-74
2021/03/31 04:26:58;;;;;;;15.38;6.03;;;11.70;65.60;;;;;;4991309;28;20054;-73
2021/03/31 04:29:25;;;;;;;16.42;6.57;;;11.70;65.60;;;;;;4991507;28;20104;-74
2021/03/31 04:31:50;;;;;;;12.75;5.38;;;11.70;65.60;;;;;;4990840;28;20030;-75
2021/03/31 04:34:19;;;;;;;11.95;4.88;;;11.70;65.60;;;;;;4992006;28;20022;-74
2021/03/31 04:36:45;;;;;;;10.80;4.82;;;11.60;65.60;;;;;;4988454;28;20351;-74
2021/03/31 04:39:11;;;;;;;10.98;4.50;;;11.60;65.70;;;;;;4991857;28;20030;-76
2021/03/31 04:41:36;;;;;;;12.07;5.22;;;11.60;65.80;;;;;;4991886;28;20049;-74
2021/03/31 04:44:04;;;;;;;11.68;4.75;;;11.60;65.80;;;;;;4991869;28;20053;-74
2021/03/31 04:46:30;;;;;;;11.15;4.63;;;11.60;65.80;;;;;;4992164;28;20030;-74
2021/03/31 04:48:55;;;;;;;10.90;4.80;;;11.60;65.90;;;;;;4991461;28;20102;-74
2021/03/31 04:51:22;;;;;;;9.48;4.70;;;11.60;65.90;;;;;;4992114;28;20105;-74
2021/03/31 04:53:47;;;;;;;10.45;4.07;;;11.50;65.80;;;;;;4991337;28;20048;-74
2021/03/31 04:56:13;;;;;;;11.43;5.30;;;11.50;66.40;;;;;;4991610;28;20537;-75
2021/03/31 04:58:39;;;;;;;11.27;4.22;;;11.50;65.80;;;;;;4991770;28;20097;-75
2021/03/31 05:01:05;;;;;;;10.35;5.25;;;11.50;65.70;;;;;;4990769;28;20379;-73
2021/03/31 05:03:31;;;;;;;9.57;3.65;;;11.50;65.80;;;;;;4990200;28;20061;-80
2021/03/31 05:05:56;;;;;;;10.23;4.18;;;11.50;65.90;;;;;;4990830;28;20054;-87
2021/03/31 05:08:22;;;;;;;11.95;4.20;;;11.50;65.90;;;;;;4973963;28;20121;-88
2021/03/31 05:10:48;;;;;;;11.65;4.05;;;11.50;65.90;;;;;;4991551;28;20053;-87
2021/03/31 05:13:14;;;;;;;10.20;4.25;;;11.40;66.00;;;;;;4992318;28;20394;-85
2021/03/31 05:15:40;;;;;;;10.80;5.65;;;11.40;66.00;;;;;;4991160;28;20058;-84
2021/03/31 05:18:07;;;;;;;9.82;3.90;;;11.40;66.00;;;;;;4990009;28;20414;-85
2021/03/31 05:20:33;;;;;;;14.88;5.35;;;11.40;66.10;;;;;;4972556;28;20030;-83
2021/03/31 05:22:59;;;;;;;11.18;4.88;;;11.40;66.80;;;;;;4972514;28;20058;-84
2021/03/31 05:25:25;;;;;;;17.13;5.07;;;11.40;66.10;;;;;;4990423;28;20093;-83
2021/03/31 05:27:50;;;;;;;11.43;4.60;;;11.40;66.10;;;;;;4989651;28;20108;-83
2021/03/31 05:30:17;;;;;;;10.70;4.85;;;11.30;66.00;;;;;;4989412;28;20409;-83
2021/03/31 05:32:43;;;;;;;12.05;4.28;;;11.30;66.10;;;;;;4990675;28;20031;-83
2021/03/31 05:35:09;;;;;;;11.88;4.00;;;11.30;66.10;;;;;;4990521;28;20398;-73
2021/03/31 05:37:36;;;;;;;11.75;4.32;;;11.30;66.10;;;;;;4991073;28;20077;-75
2021/03/31 05:40:03;;;;;;;9.77;4.55;;;11.30;66.10;;;;;;4989875;28;20027;-75
2021/03/31 05:42:29;;;;;;;14.82;5.15;;;11.30;66.10;;;;;;4991149;28;20026;-75
2021/03/31 05:44:55;;;;;;;17.35;7.13;;;11.30;66.10;;;;;;4990965;28;20021;-75
2021/03/31 05:49:50;;;;;;;11.30;5.05;;;11.30;66.00;;;;;;4990623;28;20038;-74
2021/03/31 05:52:16;;;;;;;11.18;5.25;;;11.30;66.00;;;;;;4991500;28;20031;-74
2021/03/31 05:54:41;;;;;;;14.63;4.55;;;11.30;66.00;;;;;;4991282;28;20019;-74
2021/03/31 05:57:08;;;;;;;15.50;5.60;;;11.30;66.00;;;;;;4990859;28;20015;-75
2021/03/31 05:59:35;;;;;;;15.73;4.82;;;11.30;66.00;;;;;;4991283;28;20068;-74
2021/03/31 06:02:02;;;;;;;11.40;5.00;;;11.30;66.10;;;;;;4990738;28;20030;-75
2021/03/31 06:04:27;;;;;;;13.30;4.55;;;11.30;66.10;;;;;;4991080;28;20485;-74
2021/03/31 06:06:53;;;;;;;13.52;4.82;;;11.30;66.10;;;;;;4973407;28;20189;-73
2021/03/31 06:09:19;;;;;;;14.57;4.88;;;11.30;66.10;;;;;;4991233;28;20483;-75
2021/03/31 06:11:54;;;;;;;12.15;4.43;;;11.30;66.10;;;;;;4990888;28;20025;-75
2021/03/31 06:14:38;;;;;;;14.52;4.63;;;11.30;66.10;;;;;;4991825;28;20450;-74
2021/03/31 06:17:13;;;;;;;12.45;5.32;;;11.40;66.20;;;;;;4990636;28;20145;-75
2021/03/31 06:19:41;;;;;;;9.50;4.35;;;11.40;66.20;;;;;;4990724;28;20427;-75
2021/03/31 06:22:45;;;;;;;11.18;4.22;;;11.40;66.30;;;;;;4972643;28;20102;-74
2021/03/31 06:25:20;;;;;;;11.38;5.13;;;11.40;66.30;;;;;;4972689;28;20375;-75
2021/03/31 06:27:53;;;;;;;13.07;5.07;;;11.40;66.40;;;;;;4991141;28;20022;-75
2021/03/31 06:30:28;;;;;;;11.70;4.45;;;11.40;66.50;;;;;;4972863;28;20061;-75
2021/03/31 06:32:55;;;;;;;12.75;4.80;;;11.50;66.70;;;;;;4990520;28;20018;-73
2021/03/31 06:35:24;;;;;;;15.30;4.10;;;11.40;66.60;;;;;;4991110;28;20022;-75
2021/03/31 06:37:50;;;;;;;14.65;4.93;;;11.50;66.80;;;;;;4991032;28;20018;-74
2021/03/31 06:40:55;;;;;;;11.73;4.38;;;11.50;66.80;;;;;;4991783;28;20022;-74
2021/03/31 06:43:29;;;;;;;14.18;4.80;;;11.60;66.90;;;;;;4994159;28;20069;-75
2021/03/31 06:48:26;;;;;;;10.80;4.38;;;11.60;67.00;;;;;;4994265;28;20023;-76
2021/03/31 06:50:52;;;;;;;12.55;4.60;;;11.60;67.00;;;;;;4994048;28;20394;-74
2021/03/31 06:53:29;;;;;;;11.77;5.05;;;11.60;67.00;;;;;;4993652;28;20077;-74
2021/03/31 06:56:05;;;;;;;14.35;5.25;;;11.70;67.10;;;;;;4993836;28;20030;-74
2021/03/31 06:58:34;;;;;;;11.93;4.80;;;11.70;67.10;;;;;;4994218;28;20023;-75
2021/03/31 07:01:00;;;;;;;10.90;4.72;;;11.80;67.10;;;;;;4993685;28;20022;-74
2021/03/31 07:03:27;;;;;;;12.18;5.03;;;11.80;67.00;;;;;;4976512;28;20015;-75
2021/03/31 07:05:52;;;;;;;10.85;4.97;;;11.80;67.00;;;;;;4994150;28;20100;-75
2021/03/31 07:08:18;;;;;;;12.10;4.22;;;11.90;67.00;;;;;;4993535;28;20461;-75
2021/03/31 07:10:52;;;;;;;11.57;4.95;;;11.90;66.90;;;;;;4994129;28;20086;-74
2021/03/31 07:13:29;;;;;;;10.35;5.43;;;12.00;66.80;;;;;;4993086;28;20180;-74
2021/03/31 07:15:56;;;;;;;16.10;4.88;;;12.00;66.70;;;;;;4993494;28;20032;-74
2021/03/31 07:18:24;;;;;;;9.90;4.38;;;12.10;66.70;;;;;;4975996;28;20443;-73
2021/03/31 07:20:50;;;;;;;12.27;5.03;;;12.10;66.70;;;;;;4993816;28;20026;-74
2021/03/31 07:23:16;;;;;;;15.65;4.47;;;12.10;66.60;;;;;;4993359;28;20035;-74
2021/03/31 07:25:42;;;;;;;16.85;5.53;;;12.20;66.60;;;;;;4976055;28;20117;-75
2021/03/31 07:28:10;;;;;;;10.68;4.53;;;12.30;66.50;;;;;;4993065;28;20015;-73
2021/03/31 07:30:36;;;;;;;9.98;4.90;;;12.30;66.30;;;;;;4993474;28;20085;-75
2021/03/31 07:33:08;;;;;;;12.52;5.18;;;12.30;66.00;;;;;;4993053;28;20026;-75
2021/03/31 07:35:34;;;;;;;10.65;4.43;;;12.40;66.00;;;;;;4993449;28;20088;-75
2021/03/31 07:38:03;;;;;;;10.77;4.60;;;12.50;65.90;;;;;;4992491;28;20025;-74
2021/03/31 07:40:30;;;;;;;9.80;3.83;;;12.50;65.70;;;;;;4993506;28;20018;-75
2021/03/31 07:42:58;;;;;;;9.68;4.35;;;12.60;65.30;;;;;;4992838;28;20014;-75
2021/03/31 07:45:27;;;;;;;11.23;4.47;;;12.70;64.80;;;;;;4993085;28;20014;-75
2021/03/31 07:47:55;;;;;;;8.48;3.28;;;12.80;64.40;;;;;;4993259;28;20348;-76
2021/03/31 07:50:21;;;;;;;10.20;4.55;;;12.90;64.10;;;;;;4974703;28;20025;-75
2021/03/31 07:53:03;;;;;;;13.43;4.28;;;13.00;63.80;;;;;;4992238;28;20023;-74
2021/03/31 07:55:34;;;;;;;10.65;5.07;;;13.10;63.30;;;;;;4993158;28;20014;-75
2021/03/31 07:58:15;;;;;;;12.98;5.35;;;13.20;62.90;;;;;;4992246;28;20030;-74
2021/03/31 08:00:47;;;;;;;9.52;4.15;;;13.30;62.50;;;;;;4993040;28;20088;-75
2021/03/31 08:03:16;;;;;;;8.02;3.40;;;13.30;62.20;;;;;;4992597;28;20014;-74
2021/03/31 08:06:11;;;;;;;10.20;4.32;;;13.40;62.10;;;;;;4992878;28;20109;-75
2021/03/31 08:08:46;;;;;;;9.25;3.95;;;13.50;61.80;;;;;;4970031;28;20037;-75
2021/03/31 08:11:12;;;;;;;10.02;4.25;;;13.60;61.60;;;;;;4992005;28;20418;-76
2021/03/31 08:13:41;;;;;;;7.85;3.33;;;13.70;61.50;;;;;;4975308;28;20019;-76
2021/03/31 08:16:30;;;;;;;9.40;3.83;;;13.70;61.30;;;;;;4992523;28;20050;-75
2021/03/31 08:18:56;;;;;;;8.13;3.90;;;13.80;60.80;;;;;;4992948;28;20042;-74
2021/03/31 08:21:27;;;;;;;10.70;3.83;;;13.80;60.70;;;;;;4975054;28;20355;-75
2021/03/31 08:23:55;;;;;;;7.75;3.85;;;14.00;60.20;;;;;;4993248;28;20026;-75
2021/03/31 08:26:55;;;;;;;11.77;4.55;;;14.00;60.00;;;;;;4991818;28;20022;-75
2021/03/31 08:29:21;;;;;;;11.85;4.18;;;14.10;59.80;;;;;;4974324;28;20491;-75
2021/03/31 08:31:55;;;;;;;10.48;3.80;;;14.20;59.80;;;;;;4992312;28;20030;-75
2021/03/31 08:34:23;;;;;;;11.82;4.80;;;14.20;59.50;;;;;;4991930;28;20459;-74
2021/03/31 08:36:49;;;;;;;12.30;4.20;;;14.30;59.60;;;;;;4992123;28;20356;-75
2021/03/31 08:39:14;;;;;;;8.90;4.53;;;14.30;59.50;;;;;;4991823;28;20033;-75
2021/03/31 08:41:43;;;;;;;12.10;4.45;;;14.40;59.30;;;;;;4992385;28;20022;-75
2021/03/31 08:44:15;;;;;;;10.95;4.88;;;14.40;59.30;;;;;;4991775;28;20028;-74
2021/03/31 08:46:42;;;;;;;12.18;5.32;;;14.40;59.10;;;;;;4992170;28;20026;-75
2021/03/31 08:49:24;;;;;;;9.85;4.10;;;14.50;59.00;;;;;;4991479;28;20082;-75
2021/03/31 08:51:52;;;;;;;11.20;4.28;;;14.60;58.80;;;;;;4974681;28;20038;-75
2021/03/31 08:54:40;;;;;;;7.38;3.20;;;14.60;58.70;;;;;;4973869;28;20054;-74
2021/03/31 08:57:27;;;;;;;8.55;3.97;;;14.70;58.50;;;;;;4991141;28;20518;-75
2021/03/31 08:59:56;;;;;;;11.65;4.25;;;14.80;58.40;;;;;;4974850;28;20471;-74
2021/03/31 09:02:34;;;;;;;9.25;4.10;;;14.80;58.30;;;;;;4991124;28;20029;-76
2021/03/31 09:05:01;;;;;;;7.07;3.20;;;15.00;58.30;;;;;;4992109;28;20018;-76
2021/03/31 09:07:27;;;;;;;11.93;4.32;;;15.00;58.10;;;;;;4973590;28;20388;-75
2021/03/31 09:09:53;;;;;;;9.70;3.83;;;15.10;57.80;;;;;;4991745;28;20037;-75
2021/03/31 09:12:25;;;;;;;9.80;3.67;;;15.20;57.60;;;;;;4990879;28;20019;-74
2021/03/31 09:14:55;;;;;;;6.93;3.08;;;15.20;57.50;;;;;;4991707;28;20050;-75
2021/03/31 09:17:31;;;;;;;8.98;3.88;;;15.30;57.30;;;;;;4991018;28;20475;-75
2021/03/31 09:20:00;;;;;;;8.75;4.18;;;15.50;57.00;;;;;;4991906;28;20079;-76
2021/03/31 09:22:29;;;;;;;8.52;3.15;;;15.50;56.60;;;;;;4973163;28;20037;-75
2021/03/31 09:25:00;;;;;;;9.70;3.67;;;15.70;56.40;;;;;;4991211;28;20019;-76
2021/03/31 09:27:30;;;;;;;;;;;15.70;56.10;;;;;;4991555;28;20025;-75
2021/03/31 09:29:59;;;;;;;8.93;3.90;;;15.80;56.00;;;;;;4973833;28;20282;-76
2021/03/31 09:32:33;;;;;;;7.75;3.47;;;15.90;55.90;;;;;;4991900;28;20482;-74
2021/03/31 09:35:06;;;;;;;9.90;4.20;;;16.00;55.70;;;;;;4991690;28;20110;-75
2021/03/31 09:37:45;;;;;;;9.77;4.07;;;16.10;55.80;;;;;;4991697;28;20022;-75
2021/03/31 09:40:28;;;;;;;10.32;4.47;;;16.10;55.80;;;;;;4991348;28;20023;-74
2021/03/31 09:42:59;;;;;;;10.98;3.88;;;16.10;56.00;;;;;;4973650;28;20022;-75
2021/03/31 09:45:27;;;;;;;9.38;3.97;;;16.10;56.10;;;;;;4990491;28;20030;-75
2021/03/31 09:47:55;;;;;;;8.85;3.85;;;16.10;56.10;;;;;;4991328;28;20023;-75
2021/03/31 09:50:26;;;;;;;11.05;5.55;;;16.10;56.10;;;;;;4990795;28;20056;-76
2021/03/31 09:52:57;;;;;;;12.80;4.60;;;16.20;56.00;;;;;;4974002;28;20025;-75
2021/03/31 09:55:23;;;;;;;9.67;4.00;;;16.20;55.80;;;;;;4990980;28;20061;-76
2021/03/31 09:57:51;;;;;;;10.23;4.10;;;16.20;55.70;;;;;;4991114;28;20277;-75
2021/03/31 10:00:18;;;;;;;10.90;4.45;;;16.30;55.70;;;;;;4990668;28;20041;-77
2021/03/31 10:02:45;;;;;;;8.95;4.22;;;16.40;55.70;;;;;;4991186;28;20036;-76
2021/03/31 10:05:17;;;;;;;11.07;4.47;;;16.40;55.60;;;;;;4990607;28;20462;-76
2021/03/31 10:07:53;;;;;;;10.30;4.72;;;16.50;55.60;;;;;;4991272;28;20019;-76
2021/03/31 10:10:37;;;;;;;10.73;4.43;;;16.60;55.20;;;;;;4974454;28;20415;-75
2021/03/31 10:13:03;;;;;;;11.38;4.47;;;16.70;54.90;;;;;;4991111;28;20030;-76
2021/03/31 10:15:29;;;;;;;12.27;3.70;;;16.80;54.80;;;;;;4975013;28;20347;-75
2021/03/31 10:17:55;;;;;;;11.40;3.20;;;16.90;54.60;;;;;;4995021;28;20022;-75
2021/03/31 10:20:21;;;;;;;9.10;4.05;;;17.00;54.60;;;;;;4994006;28;20054;-75
2021/03/31 10:22:53;;;;;;;9.48;3.90;;;17.10;54.10;;;;;;4994886;28;20454;-76
2021/03/31 10:25:26;;;;;;;14.73;4.50;;;17.30;53.50;;;;;;4993837;28;20025;-75
2021/03/31 10:27:53;;;;;;;8.60;3.58;;;17.40;53.50;;;;;;4994815;28;20153;-75
2021/03/31 10:30:31;;;;;;;9.80;3.67;;;17.40;53.30;;;;;;4993809;28;20041;-75
2021/03/31 10:32:57;;;;;;;9.73;3.72;;;17.50;53.10;;;;;;4977029;28;20045;-75
2021/03/31 10:35:40;;;;;;;10.35;4.53;;;17.50;53.20;;;;;;4976332;28;20109;-75
2021/03/31 10:38:08;;;;;;;11.25;3.65;;;17.50;53.10;;;;;;4994374;28;20027;-76
2021/03/31 10:49:28;;;;;;;8.88;3.88;;;17.70;52.70;;;;;;4990439;28;20100;-75
2021/03/31 10:52:03;;;;;;;8.35;3.15;;;17.90;52.20;;;;;;4994033;28;20192;-76
2021/03/31 10:54:29;;;;;;;10.27;3.72;;;18.00;52.50;;;;;;4976071;28;20429;-75
2021/03/31 10:57:06;;;;;;;7.13;3.40;;;18.10;51.50;;;;;;4993957;28;20050;-75
2021/03/31 10:59:33;;;;;;;9.50;4.18;;;18.20;51.20;;;;;;4993110;28;20026;-75
2021/03/31 11:01:59;;;;;;;8.48;3.20;;;18.30;51.10;;;;;;4993995;28;20018;-75
2021/03/31 11:04:24;;;;;;;10.98;3.83;;;18.40;51.00;;;;;;4992745;28;20467;-76
2021/03/31 11:06:50;;;;;;;7.18;3.45;;;18.50;51.10;;;;;;4993751;28;20025;-75
2021/03/31 11:09:15;;;;;;;6.97;2.90;;;18.60;51.00;;;;;;4975806;28;20074;-75
2021/03/31 11:11:41;;;;;;;8.20;3.80;;;18.70;50.80;;;;;;4975827;28;20542;-76
2021/03/31 11:14:07;;;;;;;7.60;3.25;;;18.80;50.20;;;;;;4994048;28;20022;-75
2021/03/31 11:16:33;;;;;;;8.25;3.33;;;19.00;50.00;;;;;;4993026;28;20566;-75
2021/03/31 11:26:53;;;;;;;11.00;3.97;;;19.40;49.10;;;;;;4993140;28;20174;-75
2021/03/31 11:29:19;;;;;;;8.60;3.38;;;19.50;48.70;;;;;;4992968;28;20121;-75
2021/03/31 11:31:44;;;;;;;10.73;4.80;;;19.60;48.50;;;;;;4993171;28;20105;-76
2021/03/31 11:34:10;;;;;;;9.98;3.40;;;19.80;48.20;;;;;;4993151;28;20468;-76
2021/03/31 11:36:36;;;;;;;9.20;3.33;;;19.90;47.90;;;;;;4992771;28;20443;-75
2021/03/31 11:39:03;;;;;;;7.88;3.22;;;20.10;48.00;;;;;;4993417;28;20362;-76
2021/03/31 11:41:29;;;;;;;9.50;4.38;;;20.30;47.80;;;;;;4992832;28;20465;-76
2021/03/31 11:43:54;;;;;;;8.73;3.13;;;20.50;47.40;;;;;;4992842;28;20019;-76
2021/03/31 11:46:20;;;;;;;11.18;4.18;;;20.70;47.40;;;;;;4974756;28;20026;-76
2021/03/31 11:48:46;;;;;;;8.65;4.65;;;20.90;46.80;;;;;;4993128;28;20042;-75
2021/03/31 11:51:12;;;;;;;6.95;3.25;;;21.10;46.30;;;;;;4993058;28;20053;-76
2021/03/31 11:53:37;;;;;;;8.80;3.15;;;21.30;46.10;;;;;;4992483;28;20032;-75
2021/03/31 11:56:03;;;;;;;9.60;2.97;;;21.50;45.80;;;;;;4992695;28;20079;-75
2021/03/31 11:58:29;;;;;;;10.50;3.75;;;21.70;45.80;;;;;;4974982;28;20422;-75
2021/03/31 12:00:54;;;;;;;8.32;3.45;;;22.00;45.70;;;;;;4992988;28;20022;-76
2021/03/31 12:03:21;;;;;;;5.03;2.60;;;22.10;45.40;;;;;;4992308;28;20469;-75
2021/03/31 12:05:47;;;;;;;8.30;3.15;;;22.40;44.60;;;;;;4993029;28;20077;-75
2021/03/31 12:08:13;;;;;;;5.45;2.90;;;22.60;44.40;;;;;;4992371;28;20014;-75
2021/03/31 12:10:39;;;;;;;8.98;3.15;;;22.80;44.20;;;;;;4992057;28;20495;-77
2021/03/31 12:13:04;;;;;;;7.45;2.70;;;23.00;44.10;;;;;;4992735;28;20022;-76
2021/03/31 12:15:30;;;;;;;5.32;2.10;;;23.20;43.50;;;;;;4992344;28;20026;-76
2021/03/31 12:17:56;;;;;;;6.90;3.00;;;23.40;43.30;;;;;;4992792;28;20311;-76
2021/03/31 12:20:21;;;;;;;6.07;2.72;;;23.50;42.30;;;;;;4991707;28;20372;-76
2021/03/31 12:22:47;;;;;;;5.68;2.47;;;23.60;41.90;;;;;;4992765;28;20398;-76
2021/03/31 12:25:13;;;;;;;5.35;2.60;;;23.60;41.80;;;;;;4992204;28;20132;-75
2021/03/31 12:27:41;;;;;;;10.15;3.20;;;23.60;42.00;;;;;;4991899;28;20117;-75
2021/03/31 12:30:11;;;;;;;8.40;3.53;;;23.70;42.10;;;;;;4992329;28;20189;-76
2021/03/31 12:32:36;;;;;;;14.48;6.07;;;23.70;41.20;;;;;;4991225;28;20528;-75
2021/03/31 12:35:03;;;;;;;8.18;3.08;;;23.80;41.30;;;;;;4992286;28;20023;-75
2021/03/31 12:37:29;;;;;;;12.02;4.15;;;23.80;41.10;;;;;;4991463;28;20073;-75
2021/03/31 12:39:55;;;;;;;6.05;3.33;;;23.80;39.70;;;;;;4992430;28;20029;-75
2021/03/31 12:42:22;;;;;;;10.80;3.75;;;23.80;39.80;;;;;;4991581;28;20014;-75
2021/03/31 12:44:48;;;;;;;9.68;3.63;;;23.80;38.90;;;;;;4992210;28;20022;-75
2021/03/31 12:47:21;;;;;;;5.05;2.65;;;23.80;39.30;;;;;;4992342;28;20344;-76
2021/03/31 12:49:50;;;;;;;8.43;3.88;;;23.80;39.80;;;;;;4992315;28;20026;-75
2021/03/31 12:52:22;;;;;;;11.20;3.70;;;23.70;39.80;;;;;;4974660;28;20406;-75
2021/03/31 12:54:55;;;;;;;11.77;4.63;;;23.70;39.80;;;;;;4992283;28;20018;-74
2021/03/31 12:57:23;;;;;;;8.45;3.92;;;23.80;39.90;;;;;;4991798;28;20025;-75
2021/03/31 12:59:48;;;;;;;5.72;2.60;;;23.80;39.80;;;;;;4991995;28;20053;-75
2021/03/31 13:02:14;;;;;;;6.30;2.47;;;23.70;39.70;;;;;;4991863;28;20018;-76
2021/03/31 13:04:40;;;;;;;8.50;4.03;;;23.80;39.80;;;;;;4991264;28;20026;-76
2021/03/31 13:07:06;;;;;;;6.85;3.40;;;23.80;39.80;;;;;;4991889;28;20092;-76
2021/03/31 13:09:32;;;;;;;7.78;3.30;;;23.70;39.10;;;;;;4991193;28;20034;-75
2021/03/31 13:11:59;;;;;;;5.88;3.15;;;23.70;39.00;;;;;;4991723;28;20022;-75